sensor_id;sensor_type;location;lat;lon;timestamp;P1;durP1;ratioP1;P2;durP2;ratioP2
57561;SDS011;43397;51.530;5.974;2023-05-16T00:01:18;8.23;;;3.25;;
57561;SDS011;43397;51.530;5.974;2023-05-16T00:03:43;10.85;;;3.22;;
57561;SDS011;43397;51.530;5.974;2023-05-16T00:06:09;11.50;;;2.88;;
57561;SDS011;43397;51.530;5.974;2023-05-16T00:08:36;10.00;;;2.80;;
57561;SDS011;43397;51.530;5.974;2023-05-16T00:11:02;11.40;;;3.25;;
57561;SDS011;43397;51.530;5.974;2023-05-16T00:13:27;9.52;;;3.40;;
57561;SDS011;43397;51.530;5.974;2023-05-16T00:15:53;15.65;;;3.47;;
57561;SDS011;43397;51.530;5.974;2023-05-16T00:18:19;12.38;;;2.83;;
57561;SDS011;43397;51.530;5.974;2023-05-16T00:20:46;10.18;;;3.05;;
57561;SDS011;43397;51.530;5.974;2023-05-16T00:23:11;15.68;;;3.70;;
57561;SDS011;43397;51.530;5.974;2023-05-16T00:25:38;18.10;;;3.50;;
57561;SDS011;43397;51.530;5.974;2023-05-16T00:28:04;15.55;;;4.00;;
57561;SDS011;43397;51.530;5.974;2023-05-16T00:30:30;10.27;;;2.97;;
57561;SDS011;43397;51.530;5.974;2023-05-16T00:32:56;8.98;;;2.90;;
57561;SDS011;43397;51.530;5.974;2023-05-16T00:35:22;10.13;;;3.70;;
57561;SDS011;43397;51.530;5.974;2023-05-16T00:37:48;10.55;;;3.22;;
57561;SDS011;43397;51.530;5.974;2023-05-16T00:40:14;11.40;;;3.15;;
57561;SDS011;43397;51.530;5.974;2023-05-16T00:42:41;15.85;;;4.18;;
57561;SDS011;43397;51.530;5.974;2023-05-16T00:45:07;10.75;;;3.85;;
57561;SDS011;43397;51.530;5.974;2023-05-16T00:47:33;11.15;;;3.33;;
57561;SDS011;43397;51.530;5.974;2023-05-16T00:50:00;8.27;;;3.20;;
57561;SDS011;43397;51.530;5.974;2023-05-16T00:52:26;11.18;;;3.08;;
57561;SDS011;43397;51.530;5.974;2023-05-16T00:54:52;12.35;;;3.17;;
57561;SDS011;43397;51.530;5.974;2023-05-16T00:57:18;15.35;;;3.35;;
57561;SDS011;43397;51.530;5.974;2023-05-16T00:59:45;16.48;;;3.17;;
57561;SDS011;43397;51.530;5.974;2023-05-16T01:02:12;10.77;;;3.10;;
57561;SDS011;43397;51.530;5.974;2023-05-16T01:04:37;12.57;;;3.58;;
57561;SDS011;43397;51.530;5.974;2023-05-16T01:07:04;13.02;;;3.60;;
57561;SDS011;43397;51.530;5.974;2023-05-16T01:09:29;14.18;;;3.33;;
57561;SDS011;43397;51.530;5.974;2023-05-16T01:14:43;14.18;;;3.45;;
57561;SDS011;43397;51.530;5.974;2023-05-16T01:17:22;11.02;;;3.28;;
57561;SDS011;43397;51.530;5.974;2023-05-16T01:19:55;12.13;;;4.15;;
57561;SDS011;43397;51.530;5.974;2023-05-16T01:22:28;15.52;;;3.50;;
57561;SDS011;43397;51.530;5.974;2023-05-16T01:25:03;12.48;;;4.28;;
57561;SDS011;43397;51.530;5.974;2023-05-16T01:27:32;11.68;;;3.58;;
57561;SDS011;43397;51.530;5.974;2023-05-16T01:29:59;13.18;;;3.05;;
57561;SDS011;43397;51.530;5.974;2023-05-16T01:32:25;13.07;;;3.47;;
57561;SDS011;43397;51.530;5.974;2023-05-16T01:34:51;8.57;;;3.75;;
57561;SDS011;43397;51.530;5.974;2023-05-16T01:37:18;11.38;;;2.85;;
57561;SDS011;43397;51.530;5.974;2023-05-16T01:39:49;11.38;;;3.40;;
57561;SDS011;43397;51.530;5.974;2023-05-16T01:42:21;15.98;;;3.72;;
57561;SDS011;43397;51.530;5.974;2023-05-16T01:44:53;11.60;;;3.88;;
57561;SDS011;43397;51.530;5.974;2023-05-16T01:47:24;9.15;;;3.35;;
57561;SDS011;43397;51.530;5.974;2023-05-16T01:49:54;10.70;;;2.80;;
57561;SDS011;43397;51.530;5.974;2023-05-16T01:52:27;10.98;;;3.05;;
57561;SDS011;43397;51.530;5.974;2023-05-16T01:54:59;12.88;;;3.05;;
57561;SDS011;43397;51.530;5.974;2023-05-16T01:57:27;13.20;;;3.05;;
57561;SDS011;43397;51.530;5.974;2023-05-16T01:59:55;10.30;;;2.72;;
57561;SDS011;43397;51.530;5.974;2023-05-16T02:02:21;10.88;;;3.17;;
57561;SDS011;43397;51.530;5.974;2023-05-16T02:04:47;7.45;;;2.80;;
57561;SDS011;43397;51.530;5.974;2023-05-16T02:07:13;17.45;;;2.78;;
57561;SDS011;43397;51.530;5.974;2023-05-16T02:09:39;12.48;;;3.03;;
57561;SDS011;43397;51.530;5.974;2023-05-16T02:12:04;12.35;;;3.05;;
57561;SDS011;43397;51.530;5.974;2023-05-16T02:14:30;9.15;;;3.25;;
57561;SDS011;43397;51.530;5.974;2023-05-16T02:16:57;10.45;;;2.97;;
57561;SDS011;43397;51.530;5.974;2023-05-16T02:19:23;11.02;;;2.88;;
57561;SDS011;43397;51.530;5.974;2023-05-16T02:21:49;10.68;;;2.88;;
57561;SDS011;43397;51.530;5.974;2023-05-16T02:24:15;15.48;;;3.28;;
57561;SDS011;43397;51.530;5.974;2023-05-16T02:26:40;13.40;;;3.20;;
57561;SDS011;43397;51.530;5.974;2023-05-16T02:29:06;12.52;;;3.08;;
57561;SDS011;43397;51.530;5.974;2023-05-16T02:31:32;9.68;;;2.83;;
57561;SDS011;43397;51.530;5.974;2023-05-16T02:33:59;11.35;;;3.70;;
57561;SDS011;43397;51.530;5.974;2023-05-16T02:36:25;14.27;;;4.82;;
57561;SDS011;43397;51.530;5.974;2023-05-16T02:38:52;13.35;;;3.25;;
57561;SDS011;43397;51.530;5.974;2023-05-16T02:41:17;14.10;;;3.38;;
57561;SDS011;43397;51.530;5.974;2023-05-16T02:43:43;12.05;;;3.05;;
57561;SDS011;43397;51.530;5.974;2023-05-16T02:46:21;16.38;;;3.85;;
57561;SDS011;43397;51.530;5.974;2023-05-16T02:48:48;13.40;;;3.92;;
57561;SDS011;43397;51.530;5.974;2023-05-16T02:51:15;9.43;;;3.05;;
57561;SDS011;43397;51.530;5.974;2023-05-16T02:53:41;11.85;;;3.33;;
57561;SDS011;43397;51.530;5.974;2023-05-16T02:56:07;10.75;;;3.67;;
57561;SDS011;43397;51.530;5.974;2023-05-16T02:58:32;12.85;;;3.22;;
57561;SDS011;43397;51.530;5.974;2023-05-16T03:00:58;14.90;;;3.72;;
57561;SDS011;43397;51.530;5.974;2023-05-16T03:03:24;9.73;;;3.55;;
57561;SDS011;43397;51.530;5.974;2023-05-16T03:05:49;15.88;;;3.65;;
57561;SDS011;43397;51.530;5.974;2023-05-16T03:08:16;12.73;;;3.85;;
57561;SDS011;43397;51.530;5.974;2023-05-16T03:10:42;13.45;;;4.72;;
57561;SDS011;43397;51.530;5.974;2023-05-16T03:13:07;21.30;;;5.70;;
57561;SDS011;43397;51.530;5.974;2023-05-16T03:15:33;16.63;;;4.78;;
57561;SDS011;43397;51.530;5.974;2023-05-16T03:17:59;14.10;;;5.57;;
57561;SDS011;43397;51.530;5.974;2023-05-16T03:20:25;14.25;;;4.97;;
57561;SDS011;43397;51.530;5.974;2023-05-16T03:22:50;13.23;;;3.97;;
57561;SDS011;43397;51.530;5.974;2023-05-16T03:25:17;15.70;;;4.30;;
57561;SDS011;43397;51.530;5.974;2023-05-16T03:27:43;12.07;;;3.95;;
57561;SDS011;43397;51.530;5.974;2023-05-16T03:30:09;15.32;;;4.20;;
57561;SDS011;43397;51.530;5.974;2023-05-16T03:32:36;18.50;;;4.57;;
57561;SDS011;43397;51.530;5.974;2023-05-16T03:35:02;16.20;;;5.95;;
57561;SDS011;43397;51.530;5.974;2023-05-16T03:37:28;14.93;;;4.40;;
57561;SDS011;43397;51.530;5.974;2023-05-16T03:39:54;16.88;;;5.13;;
57561;SDS011;43397;51.530;5.974;2023-05-16T03:42:21;14.48;;;4.57;;
57561;SDS011;43397;51.530;5.974;2023-05-16T03:44:46;18.75;;;5.38;;
57561;SDS011;43397;51.530;5.974;2023-05-16T03:47:12;21.25;;;5.22;;
57561;SDS011;43397;51.530;5.974;2023-05-16T03:49:38;18.13;;;5.50;;
57561;SDS011;43397;51.530;5.974;2023-05-16T03:52:04;16.58;;;6.07;;
57561;SDS011;43397;51.530;5.974;2023-05-16T03:54:30;15.77;;;5.57;;
57561;SDS011;43397;51.530;5.974;2023-05-16T03:56:56;18.63;;;5.53;;
57561;SDS011;43397;51.530;5.974;2023-05-16T03:59:23;25.05;;;5.65;;
57561;SDS011;43397;51.530;5.974;2023-05-16T04:01:48;16.20;;;5.32;;
57561;SDS011;43397;51.530;5.974;2023-05-16T04:04:14;16.95;;;5.15;;
57561;SDS011;43397;51.530;5.974;2023-05-16T04:06:40;18.02;;;4.88;;
57561;SDS011;43397;51.530;5.974;2023-05-16T04:09:06;17.10;;;4.88;;
57561;SDS011;43397;51.530;5.974;2023-05-16T04:11:31;18.70;;;5.20;;
57561;SDS011;43397;51.530;5.974;2023-05-16T04:13:57;16.70;;;4.95;;
57561;SDS011;43397;51.530;5.974;2023-05-16T04:16:24;14.63;;;4.82;;
57561;SDS011;43397;51.530;5.974;2023-05-16T04:18:50;14.63;;;4.90;;
57561;SDS011;43397;51.530;5.974;2023-05-16T04:21:15;14.45;;;5.35;;
57561;SDS011;43397;51.530;5.974;2023-05-16T04:23:41;21.25;;;5.72;;
57561;SDS011;43397;51.530;5.974;2023-05-16T04:26:07;13.02;;;4.70;;
57561;SDS011;43397;51.530;5.974;2023-05-16T04:28:32;14.40;;;4.03;;
57561;SDS011;43397;51.530;5.974;2023-05-16T04:30:58;14.20;;;4.10;;
57561;SDS011;43397;51.530;5.974;2023-05-16T04:33:25;16.83;;;3.90;;
57561;SDS011;43397;51.530;5.974;2023-05-16T04:35:50;14.30;;;4.47;;
57561;SDS011;43397;51.530;5.974;2023-05-16T04:38:16;18.63;;;4.47;;
57561;SDS011;43397;51.530;5.974;2023-05-16T04:40:42;13.25;;;4.13;;
57561;SDS011;43397;51.530;5.974;2023-05-16T04:43:07;14.73;;;5.05;;
57561;SDS011;43397;51.530;5.974;2023-05-16T04:45:33;15.43;;;5.15;;
57561;SDS011;43397;51.530;5.974;2023-05-16T04:47:59;16.77;;;4.70;;
57561;SDS011;43397;51.530;5.974;2023-05-16T04:50:27;11.90;;;3.90;;
57561;SDS011;43397;51.530;5.974;2023-05-16T04:52:52;14.43;;;3.70;;
57561;SDS011;43397;51.530;5.974;2023-05-16T04:55:18;15.60;;;4.22;;
57561;SDS011;43397;51.530;5.974;2023-05-16T04:57:44;15.85;;;4.00;;
57561;SDS011;43397;51.530;5.974;2023-05-16T05:00:10;12.30;;;3.72;;
57561;SDS011;43397;51.530;5.974;2023-05-16T05:02:36;14.20;;;4.78;;
57561;SDS011;43397;51.530;5.974;2023-05-16T05:05:02;17.77;;;3.47;;
57561;SDS011;43397;51.530;5.974;2023-05-16T05:07:30;15.30;;;3.75;;
57561;SDS011;43397;51.530;5.974;2023-05-16T05:09:56;13.98;;;4.25;;
57561;SDS011;43397;51.530;5.974;2023-05-16T05:12:22;11.18;;;3.55;;
57561;SDS011;43397;51.530;5.974;2023-05-16T05:14:48;15.80;;;3.35;;
57561;SDS011;43397;51.530;5.974;2023-05-16T05:17:13;13.02;;;3.80;;
57561;SDS011;43397;51.530;5.974;2023-05-16T05:19:39;9.40;;;3.42;;
57561;SDS011;43397;51.530;5.974;2023-05-16T05:22:05;6.30;;;3.00;;
57561;SDS011;43397;51.530;5.974;2023-05-16T05:24:32;15.02;;;3.22;;
57561;SDS011;43397;51.530;5.974;2023-05-16T05:26:57;12.70;;;3.92;;
57561;SDS011;43397;51.530;5.974;2023-05-16T05:29:23;10.27;;;3.33;;
57561;SDS011;43397;51.530;5.974;2023-05-16T05:31:49;10.50;;;4.10;;
57561;SDS011;43397;51.530;5.974;2023-05-16T05:34:14;12.93;;;3.63;;
57561;SDS011;43397;51.530;5.974;2023-05-16T05:36:40;11.00;;;3.50;;
57561;SDS011;43397;51.530;5.974;2023-05-16T05:39:06;11.30;;;3.40;;
57561;SDS011;43397;51.530;5.974;2023-05-16T05:41:33;10.98;;;2.70;;
57561;SDS011;43397;51.530;5.974;2023-05-16T05:43:59;8.25;;;2.80;;
57561;SDS011;43397;51.530;5.974;2023-05-16T05:46:25;9.57;;;2.72;;
57561;SDS011;43397;51.530;5.974;2023-05-16T05:48:51;8.13;;;2.92;;
57561;SDS011;43397;51.530;5.974;2023-05-16T05:51:16;11.98;;;3.10;;
57561;SDS011;43397;51.530;5.974;2023-05-16T05:53:42;14.73;;;3.60;;
57561;SDS011;43397;51.530;5.974;2023-05-16T05:56:08;12.82;;;3.08;;
57561;SDS011;43397;51.530;5.974;2023-05-16T05:58:35;11.88;;;3.17;;
57561;SDS011;43397;51.530;5.974;2023-05-16T06:01:01;14.60;;;3.65;;
57561;SDS011;43397;51.530;5.974;2023-05-16T06:03:27;12.98;;;2.85;;
57561;SDS011;43397;51.530;5.974;2023-05-16T06:05:52;11.73;;;3.15;;
57561;SDS011;43397;51.530;5.974;2023-05-16T06:08:18;12.13;;;3.30;;
57561;SDS011;43397;51.530;5.974;2023-05-16T06:10:44;12.57;;;3.20;;
57561;SDS011;43397;51.530;5.974;2023-05-16T06:13:09;12.50;;;2.90;;
57561;SDS011;43397;51.530;5.974;2023-05-16T06:15:36;12.43;;;2.92;;
57561;SDS011;43397;51.530;5.974;2023-05-16T06:18:02;12.13;;;3.00;;
57561;SDS011;43397;51.530;5.974;2023-05-16T06:20:28;10.77;;;2.95;;
57561;SDS011;43397;51.530;5.974;2023-05-16T06:22:54;12.40;;;3.42;;
57561;SDS011;43397;51.530;5.974;2023-05-16T06:25:20;10.00;;;2.83;;
57561;SDS011;43397;51.530;5.974;2023-05-16T06:27:45;12.13;;;3.42;;
57561;SDS011;43397;51.530;5.974;2023-05-16T06:30:11;17.17;;;3.88;;
57561;SDS011;43397;51.530;5.974;2023-05-16T06:32:38;10.80;;;3.03;;
57561;SDS011;43397;51.530;5.974;2023-05-16T06:35:04;8.05;;;2.80;;
57561;SDS011;43397;51.530;5.974;2023-05-16T06:37:30;13.07;;;3.20;;
57561;SDS011;43397;51.530;5.974;2023-05-16T06:39:56;13.85;;;3.20;;
57561;SDS011;43397;51.530;5.974;2023-05-16T06:42:22;13.10;;;2.60;;
57561;SDS011;43397;51.530;5.974;2023-05-16T06:44:47;12.20;;;2.92;;
57561;SDS011;43397;51.530;5.974;2023-05-16T06:47:13;8.35;;;2.63;;
57561;SDS011;43397;51.530;5.974;2023-05-16T06:49:40;11.13;;;2.88;;
57561;SDS011;43397;51.530;5.974;2023-05-16T06:52:06;9.20;;;2.42;;
57561;SDS011;43397;51.530;5.974;2023-05-16T06:54:31;10.50;;;2.70;;
57561;SDS011;43397;51.530;5.974;2023-05-16T06:56:57;8.40;;;1.83;;
57561;SDS011;43397;51.530;5.974;2023-05-16T06:59:23;8.10;;;2.30;;
57561;SDS011;43397;51.530;5.974;2023-05-16T07:01:48;7.50;;;2.08;;
57561;SDS011;43397;51.530;5.974;2023-05-16T07:04:14;11.93;;;2.20;;
57561;SDS011;43397;51.530;5.974;2023-05-16T07:06:41;10.70;;;2.05;;
57561;SDS011;43397;51.530;5.974;2023-05-16T07:09:07;13.05;;;2.58;;
57561;SDS011;43397;51.530;5.974;2023-05-16T07:11:32;10.15;;;2.03;;
57561;SDS011;43397;51.530;5.974;2023-05-16T07:13:58;7.90;;;2.35;;
57561;SDS011;43397;51.530;5.974;2023-05-16T07:16:24;8.07;;;1.98;;
57561;SDS011;43397;51.530;5.974;2023-05-16T07:18:49;8.95;;;1.98;;
57561;SDS011;43397;51.530;5.974;2023-05-16T07:21:15;9.52;;;2.10;;
57561;SDS011;43397;51.530;5.974;2023-05-16T07:23:42;9.82;;;1.98;;
57561;SDS011;43397;51.530;5.974;2023-05-16T07:26:08;9.02;;;2.10;;
57561;SDS011;43397;51.530;5.974;2023-05-16T07:28:33;9.50;;;2.55;;
57561;SDS011;43397;51.530;5.974;2023-05-16T07:30:59;8.27;;;2.00;;
57561;SDS011;43397;51.530;5.974;2023-05-16T07:33:25;11.70;;;1.95;;
57561;SDS011;43397;51.530;5.974;2023-05-16T07:35:50;8.35;;;2.13;;
57561;SDS011;43397;51.530;5.974;2023-05-16T07:38:16;9.15;;;2.20;;
57561;SDS011;43397;51.530;5.974;2023-05-16T07:40:43;11.48;;;2.28;;
57561;SDS011;43397;51.530;5.974;2023-05-16T07:43:09;7.80;;;1.75;;
57561;SDS011;43397;51.530;5.974;2023-05-16T07:45:34;5.90;;;1.65;;
57561;SDS011;43397;51.530;5.974;2023-05-16T07:48:00;12.00;;;2.13;;
57561;SDS011;43397;51.530;5.974;2023-05-16T07:50:26;8.82;;;2.42;;
57561;SDS011;43397;51.530;5.974;2023-05-16T07:52:51;8.10;;;1.83;;
57561;SDS011;43397;51.530;5.974;2023-05-16T07:55:17;7.22;;;1.42;;
57561;SDS011;43397;51.530;5.974;2023-05-16T07:57:44;7.03;;;1.23;;
57561;SDS011;43397;51.530;5.974;2023-05-16T08:00:10;9.07;;;2.05;;
57561;SDS011;43397;51.530;5.974;2023-05-16T08:02:37;7.97;;;1.95;;
57561;SDS011;43397;51.530;5.974;2023-05-16T08:05:03;7.40;;;1.73;;
57561;SDS011;43397;51.530;5.974;2023-05-16T08:07:29;6.78;;;1.67;;
57561;SDS011;43397;51.530;5.974;2023-05-16T08:09:54;11.98;;;2.17;;
57561;SDS011;43397;51.530;5.974;2023-05-16T08:12:20;8.02;;;1.25;;
57561;SDS011;43397;51.530;5.974;2023-05-16T08:14:47;8.05;;;1.52;;
57561;SDS011;43397;51.530;5.974;2023-05-16T08:17:13;9.35;;;1.65;;
57561;SDS011;43397;51.530;5.974;2023-05-16T08:19:38;5.75;;;1.40;;
57561;SDS011;43397;51.530;5.974;2023-05-16T08:22:05;7.70;;;1.40;;
57561;SDS011;43397;51.530;5.974;2023-05-16T08:24:31;8.55;;;1.80;;
57561;SDS011;43397;51.530;5.974;2023-05-16T08:26:56;6.20;;;1.50;;
57561;SDS011;43397;51.530;5.974;2023-05-16T08:29:22;6.45;;;1.73;;
57561;SDS011;43397;51.530;5.974;2023-05-16T08:31:49;7.32;;;1.45;;
57561;SDS011;43397;51.530;5.974;2023-05-16T08:34:15;5.82;;;1.60;;
57561;SDS011;43397;51.530;5.974;2023-05-16T08:36:40;4.88;;;1.73;;
57561;SDS011;43397;51.530;5.974;2023-05-16T08:39:06;7.95;;;1.58;;
57561;SDS011;43397;51.530;5.974;2023-05-16T08:41:32;8.93;;;1.70;;
57561;SDS011;43397;51.530;5.974;2023-05-16T08:43:58;7.85;;;1.45;;
57561;SDS011;43397;51.530;5.974;2023-05-16T08:46:23;5.97;;;1.38;;
57561;SDS011;43397;51.530;5.974;2023-05-16T08:48:53;7.00;;;1.58;;
57561;SDS011;43397;51.530;5.974;2023-05-16T08:51:23;5.78;;;1.33;;
57561;SDS011;43397;51.530;5.974;2023-05-16T08:53:51;6.10;;;1.25;;
57561;SDS011;43397;51.530;5.974;2023-05-16T08:56:18;4.60;;;1.02;;
57561;SDS011;43397;51.530;5.974;2023-05-16T08:58:45;4.78;;;1.13;;
57561;SDS011;43397;51.530;5.974;2023-05-16T09:01:11;6.32;;;1.10;;
57561;SDS011;43397;51.530;5.974;2023-05-16T09:03:37;5.43;;;0.93;;
57561;SDS011;43397;51.530;5.974;2023-05-16T09:06:05;6.50;;;1.33;;
57561;SDS011;43397;51.530;5.974;2023-05-16T09:08:30;8.13;;;1.75;;
57561;SDS011;43397;51.530;5.974;2023-05-16T09:10:56;5.32;;;1.23;;
57561;SDS011;43397;51.530;5.974;2023-05-16T09:13:22;5.90;;;0.98;;
57561;SDS011;43397;51.530;5.974;2023-05-16T09:18:36;4.50;;;1.08;;
57561;SDS011;43397;51.530;5.974;2023-05-16T09:21:01;8.70;;;1.23;;
57561;SDS011;43397;51.530;5.974;2023-05-16T09:23:29;4.10;;;1.58;;
57561;SDS011;43397;51.530;5.974;2023-05-16T09:25:56;6.27;;;1.13;;
57561;SDS011;43397;51.530;5.974;2023-05-16T09:28:22;8.15;;;1.33;;
57561;SDS011;43397;51.530;5.974;2023-05-16T09:30:50;4.65;;;1.10;;
57561;SDS011;43397;51.530;5.974;2023-05-16T09:33:16;4.15;;;1.00;;
57561;SDS011;43397;51.530;5.974;2023-05-16T09:35:42;5.13;;;1.08;;
57561;SDS011;43397;51.530;5.974;2023-05-16T09:38:11;7.18;;;1.48;;
57561;SDS011;43397;51.530;5.974;2023-05-16T09:40:40;5.85;;;1.25;;
57561;SDS011;43397;51.530;5.974;2023-05-16T09:43:06;7.45;;;1.00;;
57561;SDS011;43397;51.530;5.974;2023-05-16T09:45:32;5.40;;;0.93;;
57561;SDS011;43397;51.530;5.974;2023-05-16T09:48:00;5.30;;;1.20;;
57561;SDS011;43397;51.530;5.974;2023-05-16T09:50:28;4.88;;;1.20;;
57561;SDS011;43397;51.530;5.974;2023-05-16T09:52:53;5.75;;;1.20;;
57561;SDS011;43397;51.530;5.974;2023-05-16T09:55:21;6.18;;;1.38;;
57561;SDS011;43397;51.530;5.974;2023-05-16T09:57:48;4.03;;;1.02;;
57561;SDS011;43397;51.530;5.974;2023-05-16T10:00:14;5.95;;;1.17;;
57561;SDS011;43397;51.530;5.974;2023-05-16T10:02:41;5.47;;;1.13;;
57561;SDS011;43397;51.530;5.974;2023-05-16T10:05:07;8.68;;;1.17;;
57561;SDS011;43397;51.530;5.974;2023-05-16T10:07:33;5.13;;;1.20;;
57561;SDS011;43397;51.530;5.974;2023-05-16T10:10:00;4.72;;;0.90;;
57561;SDS011;43397;51.530;5.974;2023-05-16T10:12:30;4.50;;;0.90;;
57561;SDS011;43397;51.530;5.974;2023-05-16T10:14:59;4.65;;;0.90;;
57561;SDS011;43397;51.530;5.974;2023-05-16T10:17:25;3.13;;;0.75;;
57561;SDS011;43397;51.530;5.974;2023-05-16T10:19:52;2.65;;;0.70;;
57561;SDS011;43397;51.530;5.974;2023-05-16T10:22:18;5.07;;;1.02;;
57561;SDS011;43397;51.530;5.974;2023-05-16T10:24:47;5.43;;;1.17;;
57561;SDS011;43397;51.530;5.974;2023-05-16T10:27:16;4.35;;;0.95;;
57561;SDS011;43397;51.530;5.974;2023-05-16T10:29:42;4.60;;;1.17;;
57561;SDS011;43397;51.530;5.974;2023-05-16T10:32:10;4.10;;;0.90;;
57561;SDS011;43397;51.530;5.974;2023-05-16T10:34:37;6.40;;;1.00;;
57561;SDS011;43397;51.530;5.974;2023-05-16T10:37:03;5.55;;;1.00;;
57561;SDS011;43397;51.530;5.974;2023-05-16T10:39:29;3.90;;;0.73;;
57561;SDS011;43397;51.530;5.974;2023-05-16T10:41:56;5.13;;;0.80;;
57561;SDS011;43397;51.530;5.974;2023-05-16T10:44:22;5.40;;;0.98;;
57561;SDS011;43397;51.530;5.974;2023-05-16T10:46:48;3.88;;;0.93;;
57561;SDS011;43397;51.530;5.974;2023-05-16T10:49:21;6.75;;;1.10;;
57561;SDS011;43397;51.530;5.974;2023-05-16T10:52:01;5.72;;;1.20;;
57561;SDS011;43397;51.530;5.974;2023-05-16T10:54:32;3.95;;;0.98;;
57561;SDS011;43397;51.530;5.974;2023-05-16T10:57:05;5.18;;;1.00;;
57561;SDS011;43397;51.530;5.974;2023-05-16T10:59:39;4.25;;;1.13;;
57561;SDS011;43397;51.530;5.974;2023-05-16T11:02:19;2.65;;;0.80;;
57561;SDS011;43397;51.530;5.974;2023-05-16T11:04:48;11.75;;;2.60;;
57561;SDS011;43397;51.530;5.974;2023-05-16T11:07:16;4.93;;;1.25;;
57561;SDS011;43397;51.530;5.974;2023-05-16T11:09:43;6.50;;;1.77;;
57561;SDS011;43397;51.530;5.974;2023-05-16T11:12:09;7.00;;;1.17;;
57561;SDS011;43397;51.530;5.974;2023-05-16T11:14:36;6.75;;;1.40;;
57561;SDS011;43397;51.530;5.974;2023-05-16T11:17:07;7.40;;;1.20;;
57561;SDS011;43397;51.530;5.974;2023-05-16T11:19:38;5.13;;;1.52;;
57561;SDS011;43397;51.530;5.974;2023-05-16T11:24:48;4.57;;;0.93;;
57561;SDS011;43397;51.530;5.974;2023-05-16T11:27:18;4.30;;;0.95;;
57561;SDS011;43397;51.530;5.974;2023-05-16T11:29:45;3.75;;;1.00;;
57561;SDS011;43397;51.530;5.974;2023-05-16T11:32:11;4.05;;;0.90;;
57561;SDS011;43397;51.530;5.974;2023-05-16T11:34:37;7.10;;;1.42;;
57561;SDS011;43397;51.530;5.974;2023-05-16T11:37:03;6.63;;;1.00;;
57561;SDS011;43397;51.530;5.974;2023-05-16T11:39:30;3.42;;;0.93;;
57561;SDS011;43397;51.530;5.974;2023-05-16T11:41:56;5.50;;;1.15;;
57561;SDS011;43397;51.530;5.974;2023-05-16T11:44:22;4.72;;;1.15;;
57561;SDS011;43397;51.530;5.974;2023-05-16T11:46:47;4.80;;;0.90;;
57561;SDS011;43397;51.530;5.974;2023-05-16T11:49:13;2.78;;;0.98;;
57561;SDS011;43397;51.530;5.974;2023-05-16T11:51:39;8.38;;;1.30;;
57561;SDS011;43397;51.530;5.974;2023-05-16T11:54:05;3.92;;;1.05;;
57561;SDS011;43397;51.530;5.974;2023-05-16T11:56:33;4.55;;;0.77;;
57561;SDS011;43397;51.530;5.974;2023-05-16T11:58:59;3.08;;;0.80;;
57561;SDS011;43397;51.530;5.974;2023-05-16T12:01:30;4.38;;;1.30;;
57561;SDS011;43397;51.530;5.974;2023-05-16T12:03:57;5.80;;;1.88;;
57561;SDS011;43397;51.530;5.974;2023-05-16T12:06:23;5.78;;;1.80;;
57561;SDS011;43397;51.530;5.974;2023-05-16T12:08:49;4.22;;;1.17;;
57561;SDS011;43397;51.530;5.974;2023-05-16T12:11:14;8.73;;;1.38;;
57561;SDS011;43397;51.530;5.974;2023-05-16T12:13:41;4.20;;;1.05;;
57561;SDS011;43397;51.530;5.974;2023-05-16T12:16:07;7.30;;;1.65;;
57561;SDS011;43397;51.530;5.974;2023-05-16T12:18:33;5.00;;;1.13;;
57561;SDS011;43397;51.530;5.974;2023-05-16T12:20:59;4.35;;;1.08;;
57561;SDS011;43397;51.530;5.974;2023-05-16T12:23:25;3.85;;;1.05;;
57561;SDS011;43397;51.530;5.974;2023-05-16T12:25:51;9.00;;;1.88;;
57561;SDS011;43397;51.530;5.974;2023-05-16T12:28:16;12.15;;;1.60;;
57561;SDS011;43397;51.530;5.974;2023-05-16T12:30:44;5.32;;;1.00;;
57561;SDS011;43397;51.530;5.974;2023-05-16T12:33:10;4.80;;;1.20;;
57561;SDS011;43397;51.530;5.974;2023-05-16T12:35:37;4.93;;;1.10;;
57561;SDS011;43397;51.530;5.974;2023-05-16T12:38:04;5.47;;;1.20;;
57561;SDS011;43397;51.530;5.974;2023-05-16T12:40:30;3.58;;;1.15;;
57561;SDS011;43397;51.530;5.974;2023-05-16T12:42:55;4.07;;;1.42;;
57561;SDS011;43397;51.530;5.974;2023-05-16T12:45:22;8.02;;;1.80;;
57561;SDS011;43397;51.530;5.974;2023-05-16T12:47:49;5.60;;;1.42;;
57561;SDS011;43397;51.530;5.974;2023-05-16T12:50:15;5.50;;;1.23;;
57561;SDS011;43397;51.530;5.974;2023-05-16T12:52:45;6.30;;;1.30;;
57561;SDS011;43397;51.530;5.974;2023-05-16T12:55:11;5.57;;;1.42;;
57561;SDS011;43397;51.530;5.974;2023-05-16T12:57:40;6.30;;;1.23;;
57561;SDS011;43397;51.530;5.974;2023-05-16T13:00:06;5.57;;;1.00;;
57561;SDS011;43397;51.530;5.974;2023-05-16T13:02:33;5.55;;;1.23;;
57561;SDS011;43397;51.530;5.974;2023-05-16T13:05:00;4.88;;;1.10;;
57561;SDS011;43397;51.530;5.974;2023-05-16T13:07:25;5.60;;;1.30;;
57561;SDS011;43397;51.530;5.974;2023-05-16T13:09:51;9.07;;;1.45;;
57561;SDS011;43397;51.530;5.974;2023-05-16T13:12:17;3.60;;;1.10;;
57561;SDS011;43397;51.530;5.974;2023-05-16T13:14:42;6.55;;;1.38;;
57561;SDS011;43397;51.530;5.974;2023-05-16T13:17:08;2.95;;;1.08;;
57561;SDS011;43397;51.530;5.974;2023-05-16T13:19:33;5.00;;;1.50;;
57561;SDS011;43397;51.530;5.974;2023-05-16T13:22:00;6.68;;;1.23;;
57561;SDS011;43397;51.530;5.974;2023-05-16T13:24:26;6.65;;;1.40;;
57561;SDS011;43397;51.530;5.974;2023-05-16T13:26:52;7.45;;;1.63;;
57561;SDS011;43397;51.530;5.974;2023-05-16T13:29:17;5.90;;;1.40;;
57561;SDS011;43397;51.530;5.974;2023-05-16T13:31:43;5.80;;;1.10;;
57561;SDS011;43397;51.530;5.974;2023-05-16T13:34:08;6.75;;;1.15;;
57561;SDS011;43397;51.530;5.974;2023-05-16T13:36:34;7.70;;;1.85;;
57561;SDS011;43397;51.530;5.974;2023-05-16T13:39:01;5.35;;;1.38;;
57561;SDS011;43397;51.530;5.974;2023-05-16T13:41:27;6.45;;;1.30;;
57561;SDS011;43397;51.530;5.974;2023-05-16T13:43:53;5.45;;;1.58;;
57561;SDS011;43397;51.530;5.974;2023-05-16T13:46:18;8.40;;;1.65;;
57561;SDS011;43397;51.530;5.974;2023-05-16T13:48:44;5.45;;;1.23;;
57561;SDS011;43397;51.530;5.974;2023-05-16T13:51:10;5.63;;;1.50;;
57561;SDS011;43397;51.530;5.974;2023-05-16T13:53:35;7.00;;;1.80;;
57561;SDS011;43397;51.530;5.974;2023-05-16T13:56:02;5.45;;;1.58;;
57561;SDS011;43397;51.530;5.974;2023-05-16T13:58:28;6.28;;;1.30;;
57561;SDS011;43397;51.530;5.974;2023-05-16T14:00:54;4.70;;;1.08;;
57561;SDS011;43397;51.530;5.974;2023-05-16T14:03:20;5.32;;;1.20;;
57561;SDS011;43397;51.530;5.974;2023-05-16T14:05:45;8.93;;;1.73;;
57561;SDS011;43397;51.530;5.974;2023-05-16T14:08:11;3.70;;;1.10;;
57561;SDS011;43397;51.530;5.974;2023-05-16T14:10:37;7.82;;;1.50;;
57561;SDS011;43397;51.530;5.974;2023-05-16T14:13:04;5.68;;;1.05;;
57561;SDS011;43397;51.530;5.974;2023-05-16T14:15:29;8.00;;;1.27;;
57561;SDS011;43397;51.530;5.974;2023-05-16T14:17:55;6.40;;;1.48;;
57561;SDS011;43397;51.530;5.974;2023-05-16T14:20:21;4.38;;;0.98;;
57561;SDS011;43397;51.530;5.974;2023-05-16T14:22:47;5.45;;;1.00;;
57561;SDS011;43397;51.530;5.974;2023-05-16T14:25:13;6.30;;;1.33;;
57561;SDS011;43397;51.530;5.974;2023-05-16T14:27:38;6.35;;;1.42;;
57561;SDS011;43397;51.530;5.974;2023-05-16T14:30:06;9.05;;;1.80;;
57561;SDS011;43397;51.530;5.974;2023-05-16T14:32:33;4.82;;;1.38;;
57561;SDS011;43397;51.530;5.974;2023-05-16T14:34:58;6.00;;;1.05;;
57561;SDS011;43397;51.530;5.974;2023-05-16T14:37:24;7.97;;;1.60;;
57561;SDS011;43397;51.530;5.974;2023-05-16T14:39:50;6.95;;;1.10;;
57561;SDS011;43397;51.530;5.974;2023-05-16T14:42:15;7.88;;;1.98;;
57561;SDS011;43397;51.530;5.974;2023-05-16T14:44:41;5.43;;;1.30;;